Time;durP1;ratioP1;P1;durP2;ratioP2;P2;SDS_P1;SDS_P2;PMS_P1;PMS_P2;Temp;Humidity;BMP_temperature;BMP_pressure;BME280_temperature;BME280_humidity;BME280_pressure;Samples;Min_cycle;Max_cycle;Signal;HPM_P1;HPM_P2
2023/05/13 00:00:44;;;;;;;8.93;8.20;;;14.80;86.40;;;14.48;54.03;101365.66;5015481;28;20238;-75
2023/05/13 00:03:16;;;;;;;9.53;7.27;;;14.80;86.50;;;14.46;54.22;101368.50;5015433;28;20202;-75
2023/05/13 00:05:48;;;;;;;12.60;7.77;;;14.70;86.70;;;14.41;54.47;101356.56;5015209;28;20188;-75
2023/05/13 00:08:20;;;;;;;9.07;7.77;;;14.70;86.90;;;14.34;55.05;101363.66;5015121;28;20315;-76
2023/05/13 00:10:53;;;;;;;10.67;6.67;;;14.60;87.70;;;14.37;54.74;101366.84;5015016;28;20231;-75
2023/05/13 00:13:25;;;;;;;8.00;7.30;;;14.60;88.20;;;14.31;55.38;101370.19;5015647;28;20195;-75
2023/05/13 00:15:57;;;;;;;6.27;5.60;;;14.60;88.60;;;14.20;55.62;101363.28;5015516;28;20219;-75
2023/05/13 00:18:29;;;;;;;6.50;5.93;;;14.50;88.70;;;14.27;55.58;101358.06;5017428;28;20309;-75
2023/05/13 00:21:01;;;;;;;9.13;6.83;;;14.50;89.20;;;14.17;55.58;101360.09;5018439;28;20227;-76
2023/05/13 00:23:33;;;;;;;6.37;5.70;;;14.40;89.50;;;14.14;55.50;101363.94;5024109;28;20597;-74
2023/05/13 00:26:06;;;;;;;6.13;5.00;;;14.40;89.50;;;14.15;55.90;101364.78;5022173;28;20602;-75
2023/05/13 00:28:38;;;;;;;5.23;4.40;;;14.40;90.00;;;13.99;55.80;101364.78;5020895;28;20187;-75
2023/05/13 00:31:10;;;;;;;6.13;5.27;;;14.30;89.60;;;14.08;55.97;101358.38;5017214;28;20238;-75
2023/05/13 00:33:42;;;;;;;7.73;4.80;;;14.40;90.10;;;14.16;56.01;101363.78;5015999;28;20278;-75
2023/05/13 00:36:14;;;;;;;5.43;4.93;;;14.50;89.90;;;14.11;55.91;101361.59;5015803;28;20220;-75
2023/05/13 00:38:46;;;;;;;5.70;4.87;;;14.50;90.00;;;14.16;56.18;101359.25;5016407;28;20203;-75
2023/05/13 00:41:20;;;;;;;7.73;5.03;;;14.50;90.00;;;14.08;55.76;101361.09;5015532;28;20713;-75
2023/05/13 00:43:53;;;;;;;6.20;4.93;;;14.40;90.00;;;14.03;56.13;101366.16;5016085;28;20198;-75
2023/05/13 00:46:25;;;;;;;5.60;5.00;;;14.40;90.20;;;14.05;56.46;101369.50;5016328;28;20203;-76
2023/05/13 00:48:58;;;;;;;8.83;4.87;;;14.30;90.30;;;14.04;56.57;101367.84;5015961;28;20208;-75
2023/05/13 00:51:31;;;;;;;7.70;5.13;;;14.30;90.60;;;13.94;56.16;101370.66;5015829;28;20231;-76
2023/05/13 00:54:04;;;;;;;9.00;5.07;;;14.20;90.30;;;13.84;56.76;101371.81;5015937;28;20192;-76
2023/05/13 00:56:39;;;;;;;5.80;5.10;;;14.20;90.70;;;13.76;57.59;101380.75;5015785;28;20219;-75
2023/05/13 00:59:11;;;;;;;7.50;5.30;;;14.00;91.20;;;13.73;57.60;101377.56;5016424;28;20219;-75
2023/05/13 01:01:53;;;;;;;7.53;5.40;;;14.00;91.20;;;13.60;57.96;101381.53;5015727;28;20668;-76
2023/05/13 01:04:37;;;;;;;6.43;5.13;;;13.90;91.80;;;13.53;59.05;101375.13;5018539;28;20199;-76
2023/05/13 01:07:22;;;;;;;6.93;5.30;;;13.80;92.00;;;13.66;58.10;101383.56;5019833;28;20640;-75
2023/05/13 01:10:19;;;;;;;6.87;5.43;;;13.90;91.70;;;13.73;57.94;101373.81;5020388;28;20231;-75
2023/05/13 01:13:02;;;;;;;5.73;5.17;;;14.10;91.80;;;13.54;58.95;101382.22;5020392;28;20243;-75
2023/05/13 01:15:39;;;;;;;6.10;5.50;;;13.80;92.10;;;13.52;59.21;101372.63;5020096;28;20217;-75
2023/05/13 01:18:19;;;;;;;5.90;5.30;;;13.80;92.10;;;13.46;59.01;101379.47;5020133;28;20556;-75
2023/05/13 01:20:53;;;;;;;7.47;5.27;;;13.80;92.50;;;13.29;59.78;101377.75;5019684;28;20716;-75
2023/05/13 01:23:26;;;;;;;6.70;6.03;;;13.60;92.70;;;13.17;60.13;101379.91;5020167;28;20207;-75
2023/05/13 01:25:58;;;;;;;7.10;5.90;;;13.50;92.80;;;13.09;59.95;101385.22;5020178;28;20242;-75
2023/05/13 01:28:30;;;;;;;7.17;5.73;;;13.30;93.10;;;12.98;61.00;101385.47;5019411;28;20196;-75
2023/05/13 01:31:02;;;;;;;7.13;5.80;;;13.30;93.20;;;12.86;60.51;101383.22;5019557;28;20235;-75
2023/05/13 01:33:34;;;;;;;8.10;6.00;;;13.10;93.40;;;12.93;61.19;101386.97;5020790;28;20229;-75
2023/05/13 01:36:08;;;;;;;7.00;5.97;;;13.10;93.80;;;12.83;61.26;101387.06;5020992;28;20212;-75
2023/05/13 01:38:43;;;;;;;5.93;5.17;;;13.10;94.00;;;12.89;60.61;101386.44;5018414;28;20191;-75
2023/05/13 01:41:16;;;;;;;6.13;5.40;;;13.20;93.90;;;12.84;60.58;101393.31;5017798;28;20226;-73
2023/05/13 01:43:47;;;;;;;6.17;5.37;;;13.10;93.20;;;12.76;60.18;101390.56;5019479;28;20198;-75
2023/05/13 01:46:20;;;;;;;7.47;5.43;;;13.10;93.10;;;12.75;60.13;101391.53;5019517;28;20184;-76
2023/05/13 01:48:52;;;;;;;7.10;5.13;;;13.00;93.40;;;12.81;60.00;101389.06;5019772;28;20283;-76
2023/05/13 01:51:24;;;;;;;9.53;5.40;;;13.10;93.60;;;12.77;60.89;101386.88;5020248;28;20223;-76
2023/05/13 01:53:57;;;;;;;7.33;5.30;;;13.10;93.30;;;12.71;59.97;101386.50;5019858;28;20211;-76
2023/05/13 01:56:30;;;;;;;7.53;5.83;;;13.00;93.30;;;12.68;60.91;101383.28;5019815;28;20211;-75
2023/05/13 01:59:02;;;;;;;7.50;5.73;;;13.00;93.40;;;12.64;60.42;101377.38;5020369;28;20187;-77
2023/05/13 02:01:34;;;;;;;6.77;5.87;;;12.90;93.80;;;12.62;61.76;101384.75;5020380;28;20223;-76
2023/05/13 02:04:06;;;;;;;7.30;5.60;;;12.90;94.00;;;12.58;61.41;101383.38;5020669;28;20286;-75
2023/05/13 02:06:38;;;;;;;7.93;5.57;;;13.00;94.00;;;12.59;61.39;101385.09;5020278;28;20192;-75
2023/05/13 02:09:11;;;;;;;6.83;5.70;;;13.00;93.80;;;12.58;61.20;101388.75;5020796;28;20203;-76
2023/05/13 02:11:43;;;;;;;8.17;5.60;;;12.90;93.90;;;12.49;61.59;101388.88;5020187;28;20246;-75
2023/05/13 02:14:15;;;;;;;7.40;6.00;;;12.80;93.90;;;12.51;62.22;101385.00;5020168;28;20242;-75
2023/05/13 02:16:47;;;;;;;6.97;5.70;;;12.80;94.20;;;12.50;61.70;101386.00;5019737;28;20222;-75
2023/05/13 02:19:19;;;;;;;6.33;5.73;;;12.90;94.50;;;12.47;62.60;101391.69;5020310;28;20202;-76
2023/05/13 02:21:51;;;;;;;6.43;5.80;;;12.80;94.20;;;12.35;62.10;101387.59;5019259;28;20574;-74
2023/05/13 02:24:25;;;;;;;7.60;5.60;;;12.80;94.20;;;12.40;62.34;101382.56;5019413;28;20297;-75
2023/05/13 02:26:57;;;;;;;6.60;5.93;;;12.70;94.60;;;12.38;62.83;101381.91;5019157;28;20192;-76
2023/05/13 02:29:28;;;;;;;6.17;5.57;;;12.70;94.50;;;12.47;62.67;101391.69;5019400;28;20188;-74
2023/05/13 02:32:02;;;;;;;7.43;6.50;;;12.80;94.50;;;12.40;62.55;101390.63;5019211;28;20195;-75
2023/05/13 02:34:34;;;;;;;7.37;5.90;;;12.80;94.40;;;12.38;62.23;101384.59;5019729;28;20258;-76
2023/05/13 02:37:07;;;;;;;6.40;5.80;;;12.80;94.60;;;12.39;62.24;101386.28;5019251;28;20579;-76
2023/05/13 02:39:40;;;;;;;7.07;5.87;;;12.70;94.90;;;12.34;62.92;101391.25;5018935;28;20195;-74
2023/05/13 02:42:12;;;;;;;6.43;5.63;;;12.70;94.70;;;12.32;63.05;101390.59;5018903;28;20596;-74
2023/05/13 02:44:44;;;;;;;8.63;6.13;;;12.70;94.70;;;12.19;62.71;101385.59;5018897;28;20192;-75
2023/05/13 02:47:16;;;;;;;6.33;5.73;;;12.60;94.80;;;12.31;63.12;101385.38;5018614;28;20207;-75
2023/05/13 02:49:48;;;;;;;8.50;6.00;;;12.60;95.00;;;12.18;62.90;101383.09;5019048;28;20238;-76
2023/05/13 02:52:20;;;;;;;10.33;6.30;;;12.60;95.00;;;12.06;63.01;101384.31;5019392;28;20207;-76
2023/05/13 02:54:53;;;;;;;7.33;6.23;;;12.50;95.10;;;12.06;62.83;101381.63;5019113;28;20218;-76
2023/05/13 02:57:25;;;;;;;9.60;5.77;;;12.50;95.10;;;12.10;63.65;101385.69;5019567;28;20269;-74
2023/05/13 02:59:57;;;;;;;6.97;5.63;;;12.40;95.50;;;11.96;63.91;101386.22;5019499;28;20223;-75
2023/05/13 03:02:28;;;;;;;8.87;5.83;;;12.30;95.30;;;12.02;63.77;101381.09;5019265;28;20683;-76
2023/05/13 03:05:00;;;;;;;7.73;6.53;;;12.40;95.50;;;12.02;63.46;101382.97;5019511;28;20223;-76
2023/05/13 03:07:32;;;;;;;6.83;6.07;;;12.40;95.40;;;12.04;63.71;101384.47;5020710;28;20751;-75
2023/05/13 03:10:05;;;;;;;8.80;5.90;;;12.40;95.40;;;12.10;64.08;101385.69;5020728;28;20235;-76
2023/05/13 03:12:37;;;;;;;7.70;6.33;;;12.50;95.90;;;11.93;64.57;101387.38;5020061;28;20660;-75
2023/05/13 03:15:11;;;;;;;7.20;6.17;;;12.30;95.70;;;11.94;64.27;101393.59;5020200;28;20192;-75
2023/05/13 03:17:43;;;;;;;9.70;6.13;;;12.30;95.70;;;11.92;64.43;101400.94;5023696;28;20208;-75
2023/05/13 03:20:16;;;;;;;6.47;5.73;;;12.30;95.60;;;11.92;64.63;101392.91;5019139;28;20238;-75
2023/05/13 03:22:48;;;;;;;7.00;6.27;;;12.30;96.20;;;11.81;64.58;101393.13;5018136;28;20282;-75
2023/05/13 03:25:21;;;;;;;6.10;5.57;;;12.20;95.70;;;11.83;64.21;101396.50;5016045;28;20641;-75
2023/05/13 03:27:54;;;;;;;9.03;6.03;;;12.20;95.80;;;11.73;64.22;101395.72;5015946;28;20199;-75
2023/05/13 03:30:26;;;;;;;6.90;6.03;;;12.10;95.80;;;11.77;65.20;101397.97;5016488;28;20234;-75
2023/05/13 03:32:57;;;;;;;8.57;6.27;;;12.20;96.00;;;11.73;64.83;101406.47;5015879;28;20215;-75
2023/05/13 03:35:29;;;;;;;7.17;6.47;;;12.20;95.90;;;11.69;64.80;101403.19;5016239;28;20196;-75
2023/05/13 03:38:01;;;;;;;6.10;5.50;;;12.10;95.90;;;11.77;65.14;101408.69;5015966;28;20214;-75
2023/05/13 03:40:35;;;;;;;10.97;6.60;;;12.20;96.10;;;11.61;64.85;101406.63;5016154;28;20223;-75
2023/05/13 03:43:06;;;;;;;8.83;6.37;;;12.10;96.00;;;11.65;65.11;101405.34;5016074;28;20199;-75
2023/05/13 03:45:38;;;;;;;7.33;6.53;;;12.10;96.10;;;11.63;64.97;101406.50;5015767;28;20191;-75
2023/05/13 03:48:11;;;;;;;8.10;6.17;;;12.00;96.30;;;11.64;65.74;101413.56;5015741;28;20188;-75
2023/05/13 03:50:43;;;;;;;7.57;5.80;;;12.10;96.20;;;11.62;65.40;101416.38;5015931;28;20318;-75
2023/05/13 03:53:15;;;;;;;10.37;6.20;;;12.00;96.30;;;11.59;65.29;101421.19;5015940;28;20199;-76
2023/05/13 03:55:48;;;;;;;6.90;6.00;;;12.00;96.40;;;11.57;64.90;101421.38;5016170;28;20187;-76
2023/05/13 03:58:21;;;;;;;8.03;6.43;;;12.00;96.50;;;11.52;65.79;101423.63;5015697;28;20212;-75
2023/05/13 04:00:53;;;;;;;7.90;6.10;;;12.00;97.00;;;11.46;66.17;101421.56;5015596;28;20238;-75
2023/05/13 04:03:25;;;;;;;6.93;6.00;;;11.80;96.80;;;11.48;66.36;101424.91;5015548;28;20200;-75
2023/05/13 04:05:57;;;;;;;7.77;6.30;;;11.90;96.80;;;11.48;66.16;101424.91;5014849;28;20204;-75
2023/05/13 04:08:29;;;;;;;6.53;5.93;;;11.90;96.90;;;11.38;66.78;101434.84;5015643;28;20207;-75
2023/05/13 04:11:02;;;;;;;7.83;6.23;;;11.80;96.90;;;11.42;65.74;101430.03;5015424;28;20247;-75
2023/05/13 04:13:34;;;;;;;8.47;6.07;;;11.80;96.80;;;11.41;66.28;101426.50;5015832;28;20206;-75
2023/05/13 04:16:06;;;;;;;7.93;6.73;;;11.80;96.80;;;11.39;66.11;101435.69;5015106;28;20195;-75
2023/05/13 04:18:38;;;;;;;7.17;6.13;;;11.80;96.80;;;11.38;65.92;101437.53;5015216;28;20217;-75
2023/05/13 04:21:11;;;;;;;7.57;6.83;;;11.80;96.70;;;11.42;66.48;101430.88;5015520;28;20570;-75
2023/05/13 04:23:43;;;;;;;7.87;6.40;;;11.80;96.80;;;11.39;66.16;101431.19;5015825;28;20203;-75
2023/05/13 04:26:16;;;;;;;7.03;6.37;;;11.80;96.90;;;11.41;66.47;101426.50;5015639;28;20199;-74
2023/05/13 04:28:48;;;;;;;7.70;6.20;;;11.80;96.90;;;11.40;66.26;101432.03;5015684;28;20550;-76
2023/05/13 04:31:20;;;;;;;12.27;6.57;;;11.80;96.90;;;11.41;66.75;101437.22;5015158;28;20227;-75
2023/05/13 04:33:52;;;;;;;8.57;6.07;;;11.80;97.00;;;11.40;66.38;101432.88;5015076;28;20310;-74
2023/05/13 04:36:24;;;;;;;8.30;6.20;;;11.80;97.00;;;11.39;67.34;101436.56;5015542;28;20188;-76
2023/05/13 04:38:56;;;;;;;8.60;5.97;;;11.80;97.10;;;11.41;66.58;101429.19;5019185;28;20207;-76
2023/05/13 04:41:29;;;;;;;6.83;5.57;;;11.90;97.00;;;11.45;66.20;101435.09;5019369;28;20234;-75
2023/05/13 04:44:01;;;;;;;6.63;6.03;;;11.90;96.70;;;11.43;66.55;101427.22;5019270;28;20250;-75
2023/05/13 04:46:32;;;;;;;9.60;6.00;;;11.90;96.90;;;11.42;66.74;101430.03;5018890;28;20641;-75
2023/05/13 04:49:04;;;;;;;7.57;6.23;;;11.90;97.10;;;11.38;66.72;101434.84;5019151;28;20703;-75
2023/05/13 04:51:37;;;;;;;11.30;5.77;;;11.80;97.10;;;11.42;67.20;101435.41;5019201;28;20238;-76
2023/05/13 04:54:09;;;;;;;10.57;6.67;;;11.90;97.50;;;11.39;67.52;101441.06;5018833;28;20633;-75
2023/05/13 04:56:42;;;;;;;7.23;6.27;;;11.90;97.40;;;11.39;68.04;101443.75;5019541;28;20299;-75
2023/05/13 04:59:14;;;;;;;6.57;5.60;;;11.90;97.50;;;11.41;67.58;101445.28;5019308;28;20238;-75
2023/05/13 05:01:47;;;;;;;9.20;5.90;;;11.90;97.40;;;11.43;67.40;101442.47;5018838;28;20188;-75
2023/05/13 05:04:19;;;;;;;6.93;6.20;;;11.90;97.50;;;11.44;67.77;101444.97;5019150;28;20189;-75
2023/05/13 05:06:51;;;;;;;6.70;5.97;;;11.90;97.50;;;11.46;68.02;101453.75;5018899;28;20192;-75
2023/05/13 05:09:23;;;;;;;8.20;6.20;;;12.00;97.50;;;11.48;68.22;101451.75;5018941;28;20199;-74
2023/05/13 05:11:56;;;;;;;10.67;6.20;;;12.00;97.70;;;11.51;68.53;101456.78;5018969;28;20202;-75
2023/05/13 05:14:28;;;;;;;9.27;6.23;;;12.00;97.70;;;11.52;67.88;101450.44;5018821;28;20188;-75
2023/05/13 05:17:00;;;;;;;8.83;5.90;;;12.00;97.60;;;11.53;68.13;101448.63;5018957;28;20200;-75
2023/05/13 05:19:32;;;;;;;8.13;6.03;;;12.10;97.60;;;11.51;67.25;101450.59;5018941;28;20286;-75
2023/05/13 05:22:04;;;;;;;7.50;5.50;;;12.10;97.40;;;11.54;67.52;101456.50;5018897;28;20202;-75
2023/05/13 05:24:35;;;;;;;7.57;5.47;;;12.10;97.30;;;11.58;67.40;101457.03;5019041;28;20207;-76
2023/05/13 05:27:09;;;;;;;7.00;5.60;;;12.10;97.40;;;11.61;67.80;101464.78;5018072;28;20601;-75
2023/05/13 05:29:41;;;;;;;7.43;5.97;;;12.10;97.50;;;11.62;67.26;101463.81;5018517;28;20192;-74
2023/05/13 05:32:13;;;;;;;6.37;5.10;;;12.20;97.40;;;11.62;67.44;101464.66;5018411;28;20192;-75
2023/05/13 05:34:45;;;;;;;6.37;5.70;;;12.20;97.40;;;11.66;67.43;101465.19;5018918;28;20203;-76
2023/05/13 05:37:17;;;;;;;5.97;5.40;;;12.20;97.90;;;11.69;66.83;101473.78;5018106;28;20203;-76
2023/05/13 05:39:49;;;;;;;7.53;5.50;;;12.30;97.30;;;11.71;67.94;101462.09;5017760;28;20247;-74
2023/05/13 05:42:22;;;;;;;8.93;5.90;;;12.30;97.50;;;11.73;67.57;101470.84;5017789;28;20663;-75
2023/05/13 05:44:54;;;;;;;11.07;6.07;;;12.30;97.50;;;11.77;68.10;101472.22;5017995;28;20667;-75
2023/05/13 05:47:26;;;;;;;10.70;5.90;;;12.30;97.60;;;11.79;67.92;101472.91;5017726;28;20191;-76
2023/05/13 05:49:58;;;;;;;7.67;6.10;;;12.40;97.60;;;11.83;67.72;101471.63;5017808;28;20227;-74
2023/05/13 05:52:30;;;;;;;7.67;5.67;;;12.40;97.60;;;11.86;67.40;101474.00;5019613;28;20198;-75
2023/05/13 05:55:02;;;;;;;7.70;6.03;;;12.40;97.50;;;11.89;68.64;101477.22;5019830;28;20246;-76
2023/05/13 05:57:35;;;;;;;9.03;6.13;;;12.40;97.80;;;11.93;68.33;101475.94;5019217;28;20657;-75
2023/05/13 06:00:09;;;;;;;10.37;5.83;;;12.50;97.90;;;11.96;68.15;101472.94;5019037;28;20223;-76
2023/05/13 06:02:41;;;;;;;7.80;6.10;;;12.50;97.90;;;12.02;68.82;101477.69;5018702;28;20636;-75
2023/05/13 06:05:13;;;;;;;9.50;6.10;;;12.60;98.00;;;12.05;68.34;101468.53;5017925;28;20216;-76
2023/05/13 06:07:45;;;;;;;9.23;5.77;;;12.60;97.80;;;12.09;68.08;101472.56;5018022;28;20183;-76
2023/05/13 06:10:17;;;;;;;6.77;6.00;;;12.70;97.80;;;12.17;69.48;101475.34;5017382;28;20707;-76
2023/05/13 06:12:51;;;;;;;10.63;5.93;;;12.80;98.00;;;12.20;68.87;101469.66;5017483;28;20192;-76
2023/05/13 06:15:22;;;;;;;7.37;5.37;;;12.80;97.90;;;12.29;67.50;101463.41;5018087;28;20196;-76
2023/05/13 06:17:54;;;;;;;6.80;5.50;;;12.90;97.70;;;12.36;67.22;101469.84;5017806;28;20218;-75
2023/05/13 06:20:26;;;;;;;9.00;5.80;;;12.90;97.30;;;12.45;65.36;101463.53;5018168;28;20734;-76
2023/05/13 06:22:59;;;;;;;10.47;5.30;;;13.10;96.20;;;12.56;64.05;101460.63;5018391;28;20249;-76
2023/05/13 06:25:30;;;;;;;6.93;5.27;;;13.20;95.70;;;12.60;64.45;101478.06;5019125;28;20230;-76
2023/05/13 06:28:05;;;;;;;6.00;5.40;;;13.20;95.50;;;12.73;63.47;101466.94;5018391;28;20322;-75
2023/05/13 06:30:37;;;;;;;11.13;5.90;;;13.30;95.50;;;12.76;63.68;101466.63;5019197;28;20281;-75
2023/05/13 06:33:11;;;;;;;11.27;5.20;;;13.30;95.30;;;12.78;64.35;101463.78;5018222;28;20302;-76
2023/05/13 06:35:46;;;;;;;9.87;5.27;;;13.40;95.50;;;12.86;63.57;101471.91;5018469;28;20250;-75
2023/05/13 06:38:18;;;;;;;9.03;5.20;;;13.50;95.00;;;12.97;62.54;101471.66;5018225;28;20215;-76
2023/05/13 06:40:50;;;;;;;5.60;5.10;;;13.60;94.90;;;13.02;62.80;101472.00;5018608;28;20314;-76
2023/05/13 06:43:23;;;;;;;6.47;4.90;;;13.60;95.00;;;13.07;62.76;101464.31;5018740;28;20703;-76
2023/05/13 06:45:55;;;;;;;10.47;5.80;;;13.70;94.50;;;13.10;63.29;101469.41;5019423;28;20287;-76
2023/05/13 06:48:27;;;;;;;9.70;5.13;;;13.70;95.10;;;13.22;60.89;101475.38;5019328;28;20187;-76
2023/05/13 06:51:00;;;;;;;7.37;5.27;;;13.80;94.00;;;13.24;62.21;101474.19;5019341;28;20297;-76
2023/05/13 06:53:31;;;;;;;10.03;5.23;;;13.90;94.30;;;13.38;61.52;101468.22;5019201;28;20191;-76
2023/05/13 06:56:03;;;;;;;6.77;5.00;;;14.00;94.30;;;13.36;62.98;101475.59;5019678;28;20196;-76
2023/05/13 06:58:37;;;;;;;8.30;5.50;;;14.00;94.70;;;13.38;62.38;101470.06;5019731;28;20319;-76
2023/05/13 07:01:09;;;;;;;6.27;5.33;;;14.00;94.40;;;13.47;63.57;101472.63;5019693;28;20317;-76
2023/05/13 07:03:41;;;;;;;6.47;5.17;;;14.10;94.90;;;13.56;62.66;101474.34;5019190;28;20199;-76
2023/05/13 07:06:14;;;;;;;8.37;5.97;;;14.20;94.50;;;13.66;61.23;101471.53;5018932;28;20250;-75
2023/05/13 07:08:46;;;;;;;7.93;5.50;;;14.20;94.10;;;13.68;61.98;101475.75;5018800;28;20644;-75
2023/05/13 07:11:18;;;;;;;9.27;5.67;;;14.30;94.30;;;13.71;62.71;101469.19;5019776;28;20231;-76
2023/05/13 07:13:51;;;;;;;8.90;5.87;;;14.30;94.60;;;13.83;60.43;101461.69;5019183;28;20283;-76
2023/05/13 07:16:23;;;;;;;11.97;5.73;;;14.40;93.70;;;13.82;63.82;101468.06;5020021;28;20363;-76
2023/05/13 07:18:55;;;;;;;9.27;5.77;;;14.50;94.70;;;13.92;61.89;101471.44;5018735;28;20212;-75
2023/05/13 07:21:29;;;;;;;7.40;5.80;;;14.50;94.50;;;13.98;60.32;101466.25;5018643;28;20231;-76
2023/05/13 07:24:04;;;;;;;7.97;5.57;;;14.60;93.70;;;14.03;61.11;101463.06;5019333;28;20609;-76
2023/05/13 07:26:36;;;;;;;7.07;5.80;;;14.70;93.60;;;14.17;60.52;101473.19;5018430;28;20222;-77
2023/05/13 07:29:09;;;;;;;6.00;5.37;;;14.70;93.70;;;14.20;61.58;101467.47;5018791;28;20192;-75
2023/05/13 07:31:41;;;;;;;10.23;6.00;;;14.80;94.00;;;14.16;61.55;101463.44;5018820;28;20234;-76
2023/05/13 07:34:13;;;;;;;10.40;9.30;;;14.80;94.20;;;14.30;61.28;101465.47;5018549;28;20222;-76
2023/05/13 07:36:45;;;;;;;9.50;6.30;;;14.90;94.10;;;14.38;61.44;101457.44;5018735;28;20202;-76
2023/05/13 07:39:17;;;;;;;12.47;6.27;;;15.00;94.00;;;14.42;62.15;101464.16;5018593;28;20258;-76
2023/05/13 07:41:49;;;;;;;9.57;6.70;;;15.10;94.20;;;14.51;62.19;101468.56;5017590;28;20188;-75
2023/05/13 07:44:22;;;;;;;8.07;5.87;;;15.10;94.50;;;14.68;59.54;101464.84;5016935;28;20201;-75
2023/05/13 07:46:54;;;;;;;9.50;6.10;;;15.30;92.80;;;14.76;60.17;101471.25;5017321;28;20647;-76
2023/05/13 07:49:26;;;;;;;8.70;6.43;;;15.30;93.40;;;14.90;59.50;101473.22;5015968;28;20533;-75
2023/05/13 07:51:58;;;;;;;10.17;7.03;;;15.50;93.10;;;14.92;59.37;101468.53;5015673;28;20196;-75
2023/05/13 07:54:30;;;;;;;9.50;6.57;;;15.50;93.10;;;14.95;59.74;101470.88;5015526;28;20632;-77
2023/05/13 07:57:04;;;;;;;10.07;6.53;;;15.60;93.10;;;15.15;59.74;101466.78;5014633;28;20671;-76
2023/05/13 07:59:37;;;;;;;9.43;6.63;;;15.70;92.70;;;15.18;59.93;101472.69;5013831;28;20211;-75
2023/05/13 08:02:09;;;;;;;7.30;6.40;;;15.80;92.90;;;15.25;60.19;101467.44;5014251;28;20192;-76
2023/05/13 08:04:41;;;;;;;8.03;6.33;;;15.90;93.20;;;15.43;59.44;101468.06;5014114;28;20196;-76
2023/05/13 08:07:14;;;;;;;9.37;6.53;;;16.00;92.60;;;15.56;57.37;101468.38;5014032;28;20203;-76
2023/05/13 08:09:46;;;;;;;7.27;6.57;;;16.10;91.80;;;15.57;59.36;101471.91;5013876;28;20601;-76
2023/05/13 08:12:17;;;;;;;8.70;6.13;;;16.20;92.40;;;15.61;57.63;101473.25;5013863;28;20198;-76
2023/05/13 08:14:51;;;;;;;8.57;6.40;;;16.20;91.80;;;15.66;58.01;101476.25;5013953;28;20197;-76
2023/05/13 08:17:22;;;;;;;10.13;6.77;;;16.20;92.30;;;15.75;58.74;101480.63;5013753;28;20583;-76
2023/05/13 08:19:54;;;;;;;9.77;6.53;;;16.40;92.40;;;15.77;59.57;101489.38;5014313;28;20605;-75
2023/05/13 08:22:26;;;;;;;9.97;6.83;;;16.30;92.50;;;15.93;58.04;101474.94;5013935;28;20187;-75
2023/05/13 08:25:00;;;;;;;8.80;7.07;;;16.50;92.10;;;16.00;57.17;101479.44;5014071;28;20202;-75
2023/05/13 08:27:32;;;;;;;8.73;7.20;;;16.50;91.60;;;16.01;59.43;101481.16;5013947;28;20287;-76
2023/05/13 08:30:05;;;;;;;9.03;6.70;;;16.60;92.60;;;16.06;60.51;101478.72;5013733;28;20223;-77
2023/05/13 08:32:37;;;;;;;9.30;7.23;;;16.70;93.30;;;16.24;56.14;101475.75;5013735;28;20225;-76
2023/05/13 08:35:12;;;;;;;8.33;7.33;;;16.80;91.10;;;16.34;56.47;101487.16;5014266;28;20269;-76
2023/05/13 08:37:44;;;;;;;9.00;6.93;;;16.90;91.20;;;16.33;59.11;101488.22;5013866;28;20553;-76
2023/05/13 08:40:16;;;;;;;9.17;7.33;;;16.90;92.40;;;16.45;57.79;101484.06;5013782;28;20231;-76
2023/05/13 08:42:54;;;;;;;8.93;5.87;;;17.00;91.90;;;16.67;55.24;101472.44;5014043;28;20199;-77
2023/05/13 08:45:32;;;;;;;11.10;7.43;;;17.30;90.20;;;16.72;56.98;101474.56;5014079;28;20196;-76
2023/05/13 08:48:06;;;;;;;9.70;7.53;;;17.30;91.10;;;16.82;55.23;101479.72;5017982;28;20192;-76
2023/05/13 08:50:42;;;;;;;9.83;6.03;;;17.40;90.20;;;17.05;53.55;101477.81;5018590;28;20810;-77
2023/05/13 08:53:16;;;;;;;9.87;5.90;;;17.60;89.50;;;17.16;52.81;101466.53;5013917;28;20195;-77
2023/05/13 08:55:48;;;;;;;8.33;6.40;;;17.70;87.40;;;17.20;54.76;101478.66;5014370;28;20192;-77
2023/05/13 08:58:20;;;;;;;8.73;7.37;;;17.80;89.30;;;17.25;55.71;101476.25;5014043;28;20199;-77
2023/05/13 09:00:56;;;;;;;9.87;6.40;;;17.80;90.10;;;17.33;53.50;101469.91;5013743;28;20235;-76
2023/05/13 09:03:31;;;;;;;6.70;5.80;;;17.80;88.10;;;17.41;53.54;101469.81;5013629;28;20202;-76
2023/05/13 09:06:06;;;;;;;6.30;5.70;;;17.90;87.50;;;17.56;52.63;101478.81;5013523;28;20203;-76
2023/05/13 09:08:41;;;;;;;10.27;6.07;;;18.10;87.30;;;17.59;51.84;101473.84;5013189;28;20246;-76
2023/05/13 09:11:14;;;;;;;6.53;5.93;;;18.10;86.30;;;17.64;54.99;101471.41;5013847;28;20226;-75
2023/05/13 09:13:58;;;;;;;9.20;5.43;;;18.20;88.50;;;17.88;51.60;101477.53;5013521;28;20215;-75
2023/05/13 09:16:35;;;;;;;7.53;5.47;;;18.40;86.50;;;17.95;53.74;101473.88;5013456;28;20192;-75
2023/05/13 09:19:10;;;;;;;11.53;5.83;;;18.50;88.30;;;18.06;51.62;101469.81;5013557;28;20196;-75
2023/05/13 09:21:43;;;;;;;7.60;5.40;;;18.60;85.60;;;18.16;53.51;101468.50;5013302;28;20254;-75
2023/05/13 09:24:20;;;;;;;7.70;5.67;;;18.70;87.30;;;18.41;50.67;101468.13;5014390;28;20192;-74
2023/05/13 09:26:53;;;;;;;6.53;5.37;;;18.90;84.10;;;18.48;52.59;101469.88;5015972;28;20207;-74
2023/05/13 09:29:28;;;;;;;10.10;6.07;;;19.00;86.70;;;18.56;50.53;101464.31;5016442;28;20195;-75
2023/05/13 09:32:11;;;;;;;7.33;5.97;;;19.10;83.00;;;18.73;49.69;101473.06;5016917;28;20565;-75
2023/05/13 09:34:49;;;;;;;7.47;5.13;;;19.20;81.30;;;18.97;46.71;101471.78;5015471;28;20199;-74
2023/05/13 09:37:25;;;;;;;9.10;6.30;;;19.40;78.70;;;19.02;47.80;101461.16;5016975;28;20188;-75
2023/05/13 09:39:57;;;;;;;12.20;6.23;;;19.50;78.50;;;19.14;45.92;101465.00;5017659;28;20231;-77
2023/05/13 09:42:31;;;;;;;7.07;6.37;;;19.60;76.90;;;19.32;46.71;101473.47;5018711;28;20263;-76
2023/05/13 09:45:09;;;;;;;13.90;7.83;;;19.80;77.20;;;19.32;45.86;101469.91;5019444;28;20188;-77
2023/05/13 09:47:43;;;;;;;11.77;8.53;;;19.80;75.50;;;19.42;44.96;101468.53;5018868;28;20198;-77
2023/05/13 09:50:16;;;;;;;14.47;10.60;;;19.80;75.10;;;19.53;44.46;101467.13;5018381;28;20571;-76
2023/05/13 09:52:49;;;;;;;13.07;8.57;;;20.00;73.70;;;19.55;43.87;101468.63;5018395;28;20247;-76
2023/05/13 09:55:22;;;;;;;13.53;11.13;;;20.00;72.90;;;19.55;45.75;101467.78;5017904;28;20192;-76
2023/05/13 09:57:54;;;;;;;17.97;13.63;;;20.00;73.90;;;19.57;43.29;101471.97;5018323;28;20278;-76
2023/05/13 10:00:26;;;;;;;14.93;13.50;;;20.00;73.70;;;19.62;46.41;101471.38;5017819;28;20235;-76
2023/05/13 10:03:06;;;;;;;13.17;11.90;;;20.00;77.50;;;19.78;46.01;101467.47;5018227;28;20192;-76
2023/05/13 10:05:39;;;;;;;17.80;16.30;;;20.20;74.90;;;19.79;47.69;101474.59;5018828;28;20198;-76
2023/05/13 10:08:14;;;;;;;23.00;20.40;;;20.20;77.10;;;19.95;44.17;101468.78;5018056;28;20196;-76
2023/05/13 10:10:48;;;;;;;24.10;21.03;;;20.40;73.30;;;20.02;45.26;101475.94;5017340;28;20223;-77
2023/05/13 10:13:24;;;;;;;25.80;22.90;;;20.40;73.60;;;20.10;46.14;101466.75;5017576;28;20192;-77
2023/05/13 10:15:57;;;;;;;26.17;23.47;;;20.50;75.20;;;20.19;42.53;101462.78;5017839;28;20202;-77
2023/05/13 10:18:30;;;;;;;39.27;33.37;;;20.60;70.60;;;20.29;43.47;101460.53;5017359;28;20206;-75
2023/05/13 10:21:04;;;;;;;30.20;26.60;;;20.70;69.70;;;20.44;41.36;101465.81;5017598;28;20227;-76
2023/05/13 10:23:37;;;;;;;38.13;34.33;;;20.80;66.10;;;20.57;41.12;101463.09;5017422;28;20192;-76
2023/05/13 10:26:11;;;;;;;43.00;38.67;;;20.90;67.90;;;20.66;40.64;101464.56;5017435;28;20191;-75
2023/05/13 10:28:45;;;;;;;37.90;32.77;;;21.10;63.00;;;20.80;37.01;101452.63;5017738;28;20194;-77
2023/05/13 10:31:17;;;;;;;50.20;35.97;;;21.20;57.30;;;20.84;39.16;101455.78;5017104;28;20228;-76
2023/05/13 10:33:53;;;;;;;71.47;53.73;;;21.20;60.80;;;20.92;35.87;101456.41;5017370;28;20215;-77